Decoded Metar for KHEI (HETTINGER in ND, USA) (IATA:HEI) | Meteo·Mobile Aviation Weather
aviador You're here:

KHEI Decoded Metar

HETTINGER in ND, USA
Report Time2018-12-14 16:53:00
UTC Time2018-12-14 17:05:34
Flight Rules vfr VFR
Wind230° at 05 kt
W.Decomp.*RWY 17: 3.1 kt HW 3.9 kt RCW
RWY 30: 1.0 kt HW 4.9 kt LCW
W.Rank230° ranks 33
Current wind is below 230° avg. (7.7)
Visibility9999 m
Phenomena:N/A
Clouds:N/A
Expected CloudBase > 4,000 ft AGL from Temp-Dew spread
CeilingNone
Temp04°C (ISA -6)
Dew Point-6°C (48% RH)
AAT-0.5°C
QNH1021 hPa
Density Alt1,834 ft
Elevation2,717 ft
Report Wrong Elevation
Raw Report
KHEI 141653Z AUTO 23005KT 10SM CLR 04/M06 A3014 RMK AO2 SLP229
T00441061 $=

Extra information for KHEI:More info

Metar Taf Metar & Taf Last 4 Metars F.Rules Stats Wind Profile Meteogram Temp Stats Airport Information Weather charts Add Link Nearby VenuesMetar ALERT Operation Metar Decoded Social comments

AIRNAV info for KHEI